Terminal Aerodrome Forecast
Issued by NWS

Home | Current Version | Previous Version | Text Only | Print | Product List | Glossary On
Versions: 1 2 3 4 5 6 7 8 9 10 11 12 13 14 15 16 17 18 19 20 21 22 23 24 25 26 27
295
FTUS41 KOKX 271229 AAA
TAFHPN
TAF AMD
KHPN 271229Z 2712/2812 09008KT 1/4SM -DZ FG OVC002
     FM271400 12005KT 1/4SM -RA FG OVC005
     FM271600 15005KT 1/2SM -RA FG OVC007
     FM271900 21003KT 1SM BR OVC008
     FM280200 20008KT 1/2SM FG OVC006
     FM280500 VRB03KT 1/2SM FG OVC004
     FM280900 VRB02KT 1/2SM FG OVC003
      AMD NOT SKED=

USA.gov is the U.S. government's official web portal to all federal, state and local government web resources and services.